ROMMA est une association bénévole à but non lucratif. Votre soutien est indispensable : ADHERER à ROMMA ou FAIRE un DON

Val-d'Arly - (73, Savoie)

Beaufortain (2050 m)   Longitude: 06° 35' 21" E   Latitude: 45° 46' 53" N Station romma n°118
 

Détail journalier du     <<     >>

Température Humidité Vent Dir Rafale Dir. rafale Ensol.
Heure (°C) (%) (km/h) (km/h) (min)
01:00 1.7775OSO13SSO0
02:00 1.8756SSO15SSO0
03:00 1.4786OSO15OSO0
04:00 0.7837OSO15OSO0
05:00 0.2863ONO8NNE0
06:00 -0.3881NNE6NNE0
07:00 -0.8902NE5NE0
08:00 -0.9916ENE18ESE60
09:00 -1.89415ESE26E30
10:00 -1.69413E32ENE40
11:00 -1.69423ENE42E30
12:00 -0.38620ENE42ENE60
13:00 0.08416ENE32E40
14:00 0.38513ENE27ENE10
15:00
16:00
17:00 -1.87723ENE42E30
18:00 -3.98349ENE64E20
19:00 -5.28042ENE69ENE10
20:00 -5.88139ENE66ENE0
21:00 -6.28246ENE74ENE0
22:00 -6.48141ENE71ENE0
23:00
minuit

Graphique du 25-03-2019

 

Serveur OMMA